Pays
Station

 

Conditions  météo  pour  Lovelock, Derby Field  -  Etats-Unis    Etats-Unis

  
23 °C
    
 
 

METAR pour Lovelock, Derby Field :

KLOL 180853Z AUTO 05007KT 10SM FEW120 23/00 A3005 RMK AO2 SLP127 T02280000 51007

 

Voici le bulletin pour Lovelock, Derby Field - Etats-Unis.
 
Le bulletin a été fait il y a 47 minutes, à 08:53 UTC .
Le vent soufflait à la vitesse de 3.6 mètres par seconde de Nord-est (050°).
 
La température était de 23 °C
La pression atmosphérique était de 1018 hPa.
Il y avait 1 à 2/8ème de nébulosité à une hauteur de 3658 mètres.
 
La visibilité globale était de 16.1 kilomètres.
 

 
 
 

Pays :   A   B   C   D   E   F   G   H   I   J   K   L   M   N   O   P   Q   R   S   T   U   V   W   Y   Z

 

Partenaires :  Info Météo avec Met'info
Météo Marine avec MeteoMarine.net
Infos Site  |  Infos Légales  |  Crédits  |  Confidentialité
Contactez-nous  |  Ajouter aux favoris
© 2013-2019 METAR - Tous droits réservés